sensor_id;sensor_type;location;lat;lon;timestamp;temperature;humidity
74376;HTU21D;62812;55.188;61.302;2024-01-15T00:00:14;-10.95;50.41
74376;HTU21D;62812;55.188;61.302;2024-01-15T00:02:42;-10.97;50.64
74376;HTU21D;62812;55.188;61.302;2024-01-15T00:05:09;-11.00;49.83
74376;HTU21D;62812;55.188;61.302;2024-01-15T00:07:36;-11.00;49.90
74376;HTU21D;62812;55.188;61.302;2024-01-15T00:10:03;-11.06;49.60
74376;HTU21D;62812;55.188;61.302;2024-01-15T00:12:30;-11.10;49.21
74376;HTU21D;62812;55.188;61.302;2024-01-15T00:14:57;-11.15;48.79
74376;HTU21D;62812;55.188;61.302;2024-01-15T00:17:23;-11.18;48.60
74376;HTU21D;62812;55.188;61.302;2024-01-15T00:19:51;-11.19;48.37
74376;HTU21D;62812;55.188;61.302;2024-01-15T00:22:18;-11.22;49.13
74376;HTU21D;62812;55.188;61.302;2024-01-15T00:24:46;-11.27;49.23
74376;HTU21D;62812;55.188;61.302;2024-01-15T00:27:12;-11.30;49.05
74376;HTU21D;62812;55.188;61.302;2024-01-15T00:29:39;-11.29;49.44
74376;HTU21D;62812;55.188;61.302;2024-01-15T00:32:06;-11.26;49.94
74376;HTU21D;62812;55.188;61.302;2024-01-15T00:34:33;-11.29;49.85
74376;HTU21D;62812;55.188;61.302;2024-01-15T00:37:06;-11.31;50.22
74376;HTU21D;62812;55.188;61.302;2024-01-15T00:39:33;-11.29;50.43
74376;HTU21D;62812;55.188;61.302;2024-01-15T00:41:59;-11.30;50.29
74376;HTU21D;62812;55.188;61.302;2024-01-15T00:44:26;-11.22;51.51
74376;HTU21D;62812;55.188;61.302;2024-01-15T00:46:52;-11.19;50.54
74376;HTU21D;62812;55.188;61.302;2024-01-15T00:49:18;-11.23;50.97
74376;HTU21D;62812;55.188;61.302;2024-01-15T00:51:45;-11.24;51.33
74376;HTU21D;62812;55.188;61.302;2024-01-15T00:54:13;-11.25;51.14
74376;HTU21D;62812;55.188;61.302;2024-01-15T00:56:39;-11.27;51.49
74376;HTU21D;62812;55.188;61.302;2024-01-15T00:59:07;-11.27;51.82
74376;HTU21D;62812;55.188;61.302;2024-01-15T01:01:36;-11.29;52.17
74376;HTU21D;62812;55.188;61.302;2024-01-15T01:04:04;-11.25;52.05
74376;HTU21D;62812;55.188;61.302;2024-01-15T01:06:31;-11.25;52.59
74376;HTU21D;62812;55.188;61.302;2024-01-15T01:08:57;-11.22;53.21
74376;HTU21D;62812;55.188;61.302;2024-01-15T01:11:26;-11.20;53.47
74376;HTU21D;62812;55.188;61.302;2024-01-15T01:13:52;-10.99;53.23
74376;HTU21D;62812;55.188;61.302;2024-01-15T01:16:19;-10.88;52.43
74376;HTU21D;62812;55.188;61.302;2024-01-15T01:18:46;-10.86;52.03
74376;HTU21D;62812;55.188;61.302;2024-01-15T01:21:12;-10.77;52.29
74376;HTU21D;62812;55.188;61.302;2024-01-15T01:23:39;-10.77;52.16
74376;HTU21D;62812;55.188;61.302;2024-01-15T01:26:06;-10.80;52.05
74376;HTU21D;62812;55.188;61.302;2024-01-15T01:28:34;-10.85;52.48
74376;HTU21D;62812;55.188;61.302;2024-01-15T01:31:03;-10.85;53.32
74376;HTU21D;62812;55.188;61.302;2024-01-15T01:33:30;-10.91;52.45
74376;HTU21D;62812;55.188;61.302;2024-01-15T01:35:59;-10.90;53.07
74376;HTU21D;62812;55.188;61.302;2024-01-15T01:38:27;-10.89;52.23
74376;HTU21D;62812;55.188;61.302;2024-01-15T01:40:54;-10.95;52.48
74376;HTU21D;62812;55.188;61.302;2024-01-15T01:43:20;-10.99;52.82
74376;HTU21D;62812;55.188;61.302;2024-01-15T01:45:48;-11.02;52.74
74376;HTU21D;62812;55.188;61.302;2024-01-15T01:48:15;-11.00;52.55
74376;HTU21D;62812;55.188;61.302;2024-01-15T01:50:42;-10.94;52.33
74376;HTU21D;62812;55.188;61.302;2024-01-15T01:53:08;-10.94;52.85
74376;HTU21D;62812;55.188;61.302;2024-01-15T01:55:36;-10.99;53.40
74376;HTU21D;62812;55.188;61.302;2024-01-15T01:58:06;-11.01;53.37
74376;HTU21D;62812;55.188;61.302;2024-01-15T02:00:35;-11.04;53.27
74376;HTU21D;62812;55.188;61.302;2024-01-15T02:03:04;-11.06;53.31
74376;HTU21D;62812;55.188;61.302;2024-01-15T02:05:31;-11.09;53.16
74376;HTU21D;62812;55.188;61.302;2024-01-15T02:08:01;-11.09;53.20
74376;HTU21D;62812;55.188;61.302;2024-01-15T02:10:28;-11.08;53.08
74376;HTU21D;62812;55.188;61.302;2024-01-15T02:12:55;-11.08;53.36
74376;HTU21D;62812;55.188;61.302;2024-01-15T02:15:26;-11.04;52.89
74376;HTU21D;62812;55.188;61.302;2024-01-15T02:17:57;-11.04;52.67
74376;HTU21D;62812;55.188;61.302;2024-01-15T02:20:26;-11.05;52.78
74376;HTU21D;62812;55.188;61.302;2024-01-15T02:22:53;-11.05;53.01
74376;HTU21D;62812;55.188;61.302;2024-01-15T02:25:21;-11.03;53.43
74376;HTU21D;62812;55.188;61.302;2024-01-15T02:27:48;-11.00;52.68
74376;HTU21D;62812;55.188;61.302;2024-01-15T02:30:14;-10.93;52.92
74376;HTU21D;62812;55.188;61.302;2024-01-15T02:32:41;-10.93;52.85
74376;HTU21D;62812;55.188;61.302;2024-01-15T02:35:09;-10.84;53.43
74376;HTU21D;62812;55.188;61.302;2024-01-15T02:37:36;-10.71;53.52
74376;HTU21D;62812;55.188;61.302;2024-01-15T02:40:05;-10.65;52.19
74376;HTU21D;62812;55.188;61.302;2024-01-15T02:42:34;-10.64;52.85
74376;HTU21D;62812;55.188;61.302;2024-01-15T02:45:01;-10.62;52.45
74376;HTU21D;62812;55.188;61.302;2024-01-15T02:47:27;-10.65;53.50
74376;HTU21D;62812;55.188;61.302;2024-01-15T02:49:53;-10.63;53.05
74376;HTU21D;62812;55.188;61.302;2024-01-15T02:52:20;-10.61;52.19
74376;HTU21D;62812;55.188;61.302;2024-01-15T02:54:47;-10.61;51.79
74376;HTU21D;62812;55.188;61.302;2024-01-15T02:57:13;-10.61;52.37
74376;HTU21D;62812;55.188;61.302;2024-01-15T02:59:41;-10.58;52.20
74376;HTU21D;62812;55.188;61.302;2024-01-15T03:02:09;-10.52;52.52
74376;HTU21D;62812;55.188;61.302;2024-01-15T03:04:35;-10.49;52.14
74376;HTU21D;62812;55.188;61.302;2024-01-15T03:07:03;-10.49;52.91
74376;HTU21D;62812;55.188;61.302;2024-01-15T03:09:29;-10.42;51.11
74376;HTU21D;62812;55.188;61.302;2024-01-15T03:11:56;-10.32;52.66
74376;HTU21D;62812;55.188;61.302;2024-01-15T03:14:23;-10.36;50.72
74376;HTU21D;62812;55.188;61.302;2024-01-15T03:16:53;-10.41;50.46
74376;HTU21D;62812;55.188;61.302;2024-01-15T03:19:20;-10.50;50.50
74376;HTU21D;62812;55.188;61.302;2024-01-15T03:21:46;-10.62;51.24
74376;HTU21D;62812;55.188;61.302;2024-01-15T03:24:13;-10.68;50.86
74376;HTU21D;62812;55.188;61.302;2024-01-15T03:26:40;-10.72;51.01
74376;HTU21D;62812;55.188;61.302;2024-01-15T03:29:07;-10.80;51.13
74376;HTU21D;62812;55.188;61.302;2024-01-15T03:31:34;-10.82;51.23
74376;HTU21D;62812;55.188;61.302;2024-01-15T03:34:03;-10.86;50.85
74376;HTU21D;62812;55.188;61.302;2024-01-15T03:36:30;-10.87;51.22
74376;HTU21D;62812;55.188;61.302;2024-01-15T03:38:57;-10.90;50.88
74376;HTU21D;62812;55.188;61.302;2024-01-15T03:41:24;-10.92;51.34
74376;HTU21D;62812;55.188;61.302;2024-01-15T03:43:51;-10.93;51.14
74376;HTU21D;62812;55.188;61.302;2024-01-15T03:46:19;-10.94;50.95
74376;HTU21D;62812;55.188;61.302;2024-01-15T03:48:47;-10.97;51.04
74376;HTU21D;62812;55.188;61.302;2024-01-15T03:51:17;-10.96;51.10
74376;HTU21D;62812;55.188;61.302;2024-01-15T03:53:44;-10.97;50.98
74376;HTU21D;62812;55.188;61.302;2024-01-15T03:56:11;-11.01;51.32
74376;HTU21D;62812;55.188;61.302;2024-01-15T03:58:37;-11.04;51.24
74376;HTU21D;62812;55.188;61.302;2024-01-15T04:01:07;-11.07;51.28
74376;HTU21D;62812;55.188;61.302;2024-01-15T04:03:35;-11.04;50.79
74376;HTU21D;62812;55.188;61.302;2024-01-15T04:06:01;-11.03;50.82
74376;HTU21D;62812;55.188;61.302;2024-01-15T04:08:29;-11.04;50.99
74376;HTU21D;62812;55.188;61.302;2024-01-15T04:10:56;-11.03;51.13
74376;HTU21D;62812;55.188;61.302;2024-01-15T04:13:23;-11.04;51.46
74376;HTU21D;62812;55.188;61.302;2024-01-15T04:15:50;-11.04;51.30
74376;HTU21D;62812;55.188;61.302;2024-01-15T04:18:16;-11.04;50.71
74376;HTU21D;62812;55.188;61.302;2024-01-15T04:20:44;-11.04;50.63
74376;HTU21D;62812;55.188;61.302;2024-01-15T04:23:11;-11.08;50.81
74376;HTU21D;62812;55.188;61.302;2024-01-15T04:25:39;-11.09;51.01
74376;HTU21D;62812;55.188;61.302;2024-01-15T04:28:08;-11.07;51.27
74376;HTU21D;62812;55.188;61.302;2024-01-15T04:30:35;-10.94;53.45
74376;HTU21D;62812;55.188;61.302;2024-01-15T04:33:02;-10.82;52.20
74376;HTU21D;62812;55.188;61.302;2024-01-15T04:35:30;-10.77;50.42
74376;HTU21D;62812;55.188;61.302;2024-01-15T04:37:57;-10.72;51.72
74376;HTU21D;62812;55.188;61.302;2024-01-15T04:40:23;-10.59;52.20
74376;HTU21D;62812;55.188;61.302;2024-01-15T04:42:52;-10.50;50.95
74376;HTU21D;62812;55.188;61.302;2024-01-15T04:45:19;-10.36;52.39
74376;HTU21D;62812;55.188;61.302;2024-01-15T04:47:49;-10.45;50.80
74376;HTU21D;62812;55.188;61.302;2024-01-15T04:50:17;-10.44;49.99
74376;HTU21D;62812;55.188;61.302;2024-01-15T04:52:44;-10.18;49.55
74376;HTU21D;62812;55.188;61.302;2024-01-15T04:55:11;-9.97;50.64
74376;HTU21D;62812;55.188;61.302;2024-01-15T04:57:37;-9.78;50.16
74376;HTU21D;62812;55.188;61.302;2024-01-15T05:00:07;-9.72;48.56
74376;HTU21D;62812;55.188;61.302;2024-01-15T05:02:34;-9.75;47.69
74376;HTU21D;62812;55.188;61.302;2024-01-15T05:05:00;-9.81;47.57
74376;HTU21D;62812;55.188;61.302;2024-01-15T05:07:27;-9.79;48.24
74376;HTU21D;62812;55.188;61.302;2024-01-15T05:09:54;-9.85;47.60
74376;HTU21D;62812;55.188;61.302;2024-01-15T05:12:24;-9.98;47.84
74376;HTU21D;62812;55.188;61.302;2024-01-15T05:14:51;-10.07;48.07
74376;HTU21D;62812;55.188;61.302;2024-01-15T05:17:19;-10.12;48.13
74376;HTU21D;62812;55.188;61.302;2024-01-15T05:19:46;-10.07;47.99
74376;HTU21D;62812;55.188;61.302;2024-01-15T05:22:13;-10.10;48.24
74376;HTU21D;62812;55.188;61.302;2024-01-15T05:24:40;-10.10;48.39
74376;HTU21D;62812;55.188;61.302;2024-01-15T05:27:07;-10.07;48.18
74376;HTU21D;62812;55.188;61.302;2024-01-15T05:29:35;-10.08;48.65
74376;HTU21D;62812;55.188;61.302;2024-01-15T05:32:01;-10.07;48.37
74376;HTU21D;62812;55.188;61.302;2024-01-15T05:34:32;-10.04;48.58
74376;HTU21D;62812;55.188;61.302;2024-01-15T05:36:59;-9.99;48.92
74376;HTU21D;62812;55.188;61.302;2024-01-15T05:39:27;-9.99;48.48
74376;HTU21D;62812;55.188;61.302;2024-01-15T05:41:53;-9.92;48.17
74376;HTU21D;62812;55.188;61.302;2024-01-15T05:44:26;-9.92;48.68
74376;HTU21D;62812;55.188;61.302;2024-01-15T05:47:10;-9.82;48.52
74376;HTU21D;62812;55.188;61.302;2024-01-15T05:49:38;-9.76;48.06
74376;HTU21D;62812;55.188;61.302;2024-01-15T05:52:07;-9.63;49.44
74376;HTU21D;62812;55.188;61.302;2024-01-15T05:54:45;-9.53;48.36
74376;HTU21D;62812;55.188;61.302;2024-01-15T05:57:12;-9.41;49.89
74376;HTU21D;62812;55.188;61.302;2024-01-15T05:59:42;-9.25;48.86
74376;HTU21D;62812;55.188;61.302;2024-01-15T06:02:11;-9.20;47.83
74376;HTU21D;62812;55.188;61.302;2024-01-15T06:04:39;-9.15;48.95
74376;HTU21D;62812;55.188;61.302;2024-01-15T06:07:29;-8.97;48.51
74376;HTU21D;62812;55.188;61.302;2024-01-15T06:10:16;-8.92;46.84
74376;HTU21D;62812;55.188;61.302;2024-01-15T06:12:49;-8.96;47.70
74376;HTU21D;62812;55.188;61.302;2024-01-15T06:15:33;-8.89;47.28
74376;HTU21D;62812;55.188;61.302;2024-01-15T06:18:22;-8.88;47.74
74376;HTU21D;62812;55.188;61.302;2024-01-15T06:21:12;-8.77;49.30
74376;HTU21D;62812;55.188;61.302;2024-01-15T06:23:48;-8.75;47.46
74376;HTU21D;62812;55.188;61.302;2024-01-15T06:26:16;-8.85;46.18
74376;HTU21D;62812;55.188;61.302;2024-01-15T06:28:56;-8.92;47.41
74376;HTU21D;62812;55.188;61.302;2024-01-15T06:31:25;-9.01;46.88
74376;HTU21D;62812;55.188;61.302;2024-01-15T06:33:58;-8.98;48.42
74376;HTU21D;62812;55.188;61.302;2024-01-15T06:36:31;-8.86;47.79
74376;HTU21D;62812;55.188;61.302;2024-01-15T06:39:00;-8.64;50.37
74376;HTU21D;62812;55.188;61.302;2024-01-15T06:41:27;-8.65;46.69
74376;HTU21D;62812;55.188;61.302;2024-01-15T06:43:55;-8.73;47.16
74376;HTU21D;62812;55.188;61.302;2024-01-15T06:46:35;-8.85;46.98
74376;HTU21D;62812;55.188;61.302;2024-01-15T06:49:06;-8.89;47.46
74376;HTU21D;62812;55.188;61.302;2024-01-15T06:51:37;-8.90;48.09
74376;HTU21D;62812;55.188;61.302;2024-01-15T06:54:04;-8.80;50.30
74376;HTU21D;62812;55.188;61.302;2024-01-15T06:56:34;-8.81;47.59
74376;HTU21D;62812;55.188;61.302;2024-01-15T06:59:02;-8.72;48.03
74376;HTU21D;62812;55.188;61.302;2024-01-15T07:01:29;-8.80;47.38
74376;HTU21D;62812;55.188;61.302;2024-01-15T07:03:56;-8.78;47.71
74376;HTU21D;62812;55.188;61.302;2024-01-15T07:06:25;-8.78;48.47
74376;HTU21D;62812;55.188;61.302;2024-01-15T07:09:09;-8.94;47.79
74376;HTU21D;62812;55.188;61.302;2024-01-15T07:11:37;-9.02;47.87
74376;HTU21D;62812;55.188;61.302;2024-01-15T07:14:08;-8.95;50.56
74376;HTU21D;62812;55.188;61.302;2024-01-15T07:16:34;-8.97;48.44
74376;HTU21D;62812;55.188;61.302;2024-01-15T07:19:01;-8.96;47.99
74376;HTU21D;62812;55.188;61.302;2024-01-15T07:21:31;-8.84;48.48
74376;HTU21D;62812;55.188;61.302;2024-01-15T07:24:05;-8.86;49.71
74376;HTU21D;62812;55.188;61.302;2024-01-15T07:26:31;-8.87;47.89
74376;HTU21D;62812;55.188;61.302;2024-01-15T07:28:58;-8.86;47.97
74376;HTU21D;62812;55.188;61.302;2024-01-15T07:31:29;-8.90;48.12
74376;HTU21D;62812;55.188;61.302;2024-01-15T07:33:55;-8.90;48.34
74376;HTU21D;62812;55.188;61.302;2024-01-15T07:36:22;-8.95;49.21
74376;HTU21D;62812;55.188;61.302;2024-01-15T07:38:55;-8.93;48.61
74376;HTU21D;62812;55.188;61.302;2024-01-15T07:41:24;-8.95;48.10
74376;HTU21D;62812;55.188;61.302;2024-01-15T07:44:00;-8.98;48.21
74376;HTU21D;62812;55.188;61.302;2024-01-15T07:46:37;-8.94;49.28
74376;HTU21D;62812;55.188;61.302;2024-01-15T07:49:53;-8.77;49.40
74376;HTU21D;62812;55.188;61.302;2024-01-15T07:52:22;-8.74;49.98
74376;HTU21D;62812;55.188;61.302;2024-01-15T07:54:52;-8.66;47.48
74376;HTU21D;62812;55.188;61.302;2024-01-15T07:57:20;-8.54;49.80
74376;HTU21D;62812;55.188;61.302;2024-01-15T07:59:47;-8.51;49.44
74376;HTU21D;62812;55.188;61.302;2024-01-15T08:02:13;-8.62;47.63
74376;HTU21D;62812;55.188;61.302;2024-01-15T08:04:40;-8.60;50.83
74376;HTU21D;62812;55.188;61.302;2024-01-15T08:07:07;-8.58;47.45
74376;HTU21D;62812;55.188;61.302;2024-01-15T08:09:35;-8.63;47.86
74376;HTU21D;62812;55.188;61.302;2024-01-15T08:12:03;-8.68;47.77
74376;HTU21D;62812;55.188;61.302;2024-01-15T08:14:34;-8.74;47.38
74376;HTU21D;62812;55.188;61.302;2024-01-15T08:17:10;-8.74;47.64
74376;HTU21D;62812;55.188;61.302;2024-01-15T08:19:58;-8.69;47.82
74376;HTU21D;62812;55.188;61.302;2024-01-15T08:22:36;-8.66;51.01
74376;HTU21D;62812;55.188;61.302;2024-01-15T08:25:07;-8.64;47.25
74376;HTU21D;62812;55.188;61.302;2024-01-15T08:27:36;-8.62;47.89
74376;HTU21D;62812;55.188;61.302;2024-01-15T08:30:06;-8.62;47.78
74376;HTU21D;62812;55.188;61.302;2024-01-15T08:32:33;-8.46;48.76
74376;HTU21D;62812;55.188;61.302;2024-01-15T08:35:12;-8.40;47.49
74376;HTU21D;62812;55.188;61.302;2024-01-15T08:38:32;-8.33;47.41
74376;HTU21D;62812;55.188;61.302;2024-01-15T08:40:59;-8.41;47.45
74376;HTU21D;62812;55.188;61.302;2024-01-15T08:43:28;-8.56;47.50
74376;HTU21D;62812;55.188;61.302;2024-01-15T08:46:14;-8.50;47.26
74376;HTU21D;62812;55.188;61.302;2024-01-15T08:48:41;-8.44;47.57
74376;HTU21D;62812;55.188;61.302;2024-01-15T08:51:09;-8.37;49.26
74376;HTU21D;62812;55.188;61.302;2024-01-15T08:53:38;-8.44;46.58
74376;HTU21D;62812;55.188;61.302;2024-01-15T08:56:11;-8.35;50.82
74376;HTU21D;62812;55.188;61.302;2024-01-15T08:58:59;-8.19;47.11
74376;HTU21D;62812;55.188;61.302;2024-01-15T09:01:28;-8.27;46.80
74376;HTU21D;62812;55.188;61.302;2024-01-15T09:03:58;-8.24;46.67
74376;HTU21D;62812;55.188;61.302;2024-01-15T09:06:25;-8.27;46.58
74376;HTU21D;62812;55.188;61.302;2024-01-15T09:08:54;-8.23;47.49
74376;HTU21D;62812;55.188;61.302;2024-01-15T09:11:32;-8.25;46.96
74376;HTU21D;62812;55.188;61.302;2024-01-15T09:13:59;-8.27;46.85
74376;HTU21D;62812;55.188;61.302;2024-01-15T09:16:28;-8.25;48.73
74376;HTU21D;62812;55.188;61.302;2024-01-15T09:19:02;-8.29;46.02
74376;HTU21D;62812;55.188;61.302;2024-01-15T09:21:39;-8.27;47.05
74376;HTU21D;62812;55.188;61.302;2024-01-15T09:24:09;-8.24;46.86
74376;HTU21D;62812;55.188;61.302;2024-01-15T09:26:38;-8.29;46.32
74376;HTU21D;62812;55.188;61.302;2024-01-15T09:29:07;-8.34;47.38
74376;HTU21D;62812;55.188;61.302;2024-01-15T09:31:43;-8.30;46.70
74376;HTU21D;62812;55.188;61.302;2024-01-15T09:34:10;-8.27;46.68
74376;HTU21D;62812;55.188;61.302;2024-01-15T09:36:39;-8.25;46.89
74376;HTU21D;62812;55.188;61.302;2024-01-15T09:39:13;-8.20;47.65
74376;HTU21D;62812;55.188;61.302;2024-01-15T09:41:47;-8.18;46.67
74376;HTU21D;62812;55.188;61.302;2024-01-15T09:44:16;-8.08;46.54
74376;HTU21D;62812;55.188;61.302;2024-01-15T09:46:51;-8.10;46.01
74376;HTU21D;62812;55.188;61.302;2024-01-15T09:49:18;-8.15;46.33
74376;HTU21D;62812;55.188;61.302;2024-01-15T09:51:51;-8.21;46.01
74376;HTU21D;62812;55.188;61.302;2024-01-15T09:54:26;-8.21;46.38
74376;HTU21D;62812;55.188;61.302;2024-01-15T09:57:11;-8.27;45.93
74376;HTU21D;62812;55.188;61.302;2024-01-15T09:59:38;-8.28;46.35
74376;HTU21D;62812;55.188;61.302;2024-01-15T10:02:22;-8.33;46.81
74376;HTU21D;62812;55.188;61.302;2024-01-15T10:04:51;-8.33;46.80
74376;HTU21D;62812;55.188;61.302;2024-01-15T10:07:35;-8.30;47.38
74376;HTU21D;62812;55.188;61.302;2024-01-15T10:10:07;-8.34;46.58
74376;HTU21D;62812;55.188;61.302;2024-01-15T10:12:58;-8.30;47.43
74376;HTU21D;62812;55.188;61.302;2024-01-15T10:15:48;-8.31;48.91
74376;HTU21D;62812;55.188;61.302;2024-01-15T10:19:04;-8.33;46.99
74376;HTU21D;62812;55.188;61.302;2024-01-15T10:21:32;-8.34;47.32
74376;HTU21D;62812;55.188;61.302;2024-01-15T10:24:03;-8.34;46.59
74376;HTU21D;62812;55.188;61.302;2024-01-15T10:27:07;-8.33;47.58
74376;HTU21D;62812;55.188;61.302;2024-01-15T10:29:48;-8.36;46.67
74376;HTU21D;62812;55.188;61.302;2024-01-15T10:32:59;-8.41;47.24
74376;HTU21D;62812;55.188;61.302;2024-01-15T10:35:30;-8.45;47.17
74376;HTU21D;62812;55.188;61.302;2024-01-15T10:38:10;-8.49;47.28
74376;HTU21D;62812;55.188;61.302;2024-01-15T10:40:42;-8.58;46.74
74376;HTU21D;62812;55.188;61.302;2024-01-15T10:43:23;-8.56;47.76
74376;HTU21D;62812;55.188;61.302;2024-01-15T10:45:53;-8.58;48.99
74376;HTU21D;62812;55.188;61.302;2024-01-15T10:48:35;-8.60;46.86
74376;HTU21D;62812;55.188;61.302;2024-01-15T10:51:15;-8.62;47.34
74376;HTU21D;62812;55.188;61.302;2024-01-15T10:53:49;-8.66;47.28
74376;HTU21D;62812;55.188;61.302;2024-01-15T10:56:20;-8.67;47.20
74376;HTU21D;62812;55.188;61.302;2024-01-15T10:58:55;-8.74;47.84
74376;HTU21D;62812;55.188;61.302;2024-01-15T11:01:23;-8.82;47.88
74376;HTU21D;62812;55.188;61.302;2024-01-15T11:03:51;-8.92;47.82
74376;HTU21D;62812;55.188;61.302;2024-01-15T11:06:24;-8.88;49.44
74376;HTU21D;62812;55.188;61.302;2024-01-15T11:08:52;-8.99;47.55
74376;HTU21D;62812;55.188;61.302;2024-01-15T11:11:22;-9.12;47.46
74376;HTU21D;62812;55.188;61.302;2024-01-15T11:13:50;-9.17;49.18
74376;HTU21D;62812;55.188;61.302;2024-01-15T11:16:19;-9.24;48.15
74376;HTU21D;62812;55.188;61.302;2024-01-15T11:19:02;-9.26;48.45
74376;HTU21D;62812;55.188;61.302;2024-01-15T11:21:42;-9.37;48.77
74376;HTU21D;62812;55.188;61.302;2024-01-15T11:24:35;-9.47;48.89
74376;HTU21D;62812;55.188;61.302;2024-01-15T11:27:05;-9.53;49.18
74376;HTU21D;62812;55.188;61.302;2024-01-15T11:29:34;-9.62;49.21
74376;HTU21D;62812;55.188;61.302;2024-01-15T11:32:03;-9.71;49.13
74376;HTU21D;62812;55.188;61.302;2024-01-15T11:34:56;-9.71;51.17
74376;HTU21D;62812;55.188;61.302;2024-01-15T11:37:27;-9.79;49.25
74376;HTU21D;62812;55.188;61.302;2024-01-15T11:40:01;-9.91;49.59
74376;HTU21D;62812;55.188;61.302;2024-01-15T11:42:33;-9.96;50.19
74376;HTU21D;62812;55.188;61.302;2024-01-15T11:45:02;-10.01;52.01
74376;HTU21D;62812;55.188;61.302;2024-01-15T11:48:10;-9.93;50.26
74376;HTU21D;62812;55.188;61.302;2024-01-15T11:50:40;-10.01;49.89
74376;HTU21D;62812;55.188;61.302;2024-01-15T11:53:17;-10.13;50.82
74376;HTU21D;62812;55.188;61.302;2024-01-15T11:55:51;-10.15;50.18
74376;HTU21D;62812;55.188;61.302;2024-01-15T11:58:18;-10.12;50.29
74376;HTU21D;62812;55.188;61.302;2024-01-15T12:00:47;-10.17;50.34
74376;HTU21D;62812;55.188;61.302;2024-01-15T12:03:16;-10.19;50.68
74376;HTU21D;62812;55.188;61.302;2024-01-15T12:06:10;-10.29;50.61
74376;HTU21D;62812;55.188;61.302;2024-01-15T12:08:39;-10.37;51.20
74376;HTU21D;62812;55.188;61.302;2024-01-15T12:11:10;-10.38;50.93
74376;HTU21D;62812;55.188;61.302;2024-01-15T12:13:39;-10.33;51.88
74376;HTU21D;62812;55.188;61.302;2024-01-15T12:16:10;-10.37;51.91
74376;HTU21D;62812;55.188;61.302;2024-01-15T12:18:39;-10.38;50.79
74376;HTU21D;62812;55.188;61.302;2024-01-15T12:21:07;-10.47;51.20
74376;HTU21D;62812;55.188;61.302;2024-01-15T12:23:36;-10.53;51.38
74376;HTU21D;62812;55.188;61.302;2024-01-15T12:26:11;-10.63;51.61
74376;HTU21D;62812;55.188;61.302;2024-01-15T12:28:41;-10.68;51.67
74376;HTU21D;62812;55.188;61.302;2024-01-15T12:31:09;-10.73;51.95
74376;HTU21D;62812;55.188;61.302;2024-01-15T12:33:36;-10.76;51.97
74376;HTU21D;62812;55.188;61.302;2024-01-15T12:36:07;-10.80;52.20
74376;HTU21D;62812;55.188;61.302;2024-01-15T12:38:34;-10.82;52.51
74376;HTU21D;62812;55.188;61.302;2024-01-15T12:41:06;-10.86;52.55
74376;HTU21D;62812;55.188;61.302;2024-01-15T12:43:50;-10.93;52.39
74376;HTU21D;62812;55.188;61.302;2024-01-15T12:46:24;-10.94;53.00
74376;HTU21D;62812;55.188;61.302;2024-01-15T12:48:55;-10.92;53.68
74376;HTU21D;62812;55.188;61.302;2024-01-15T12:51:25;-10.91;52.49
74376;HTU21D;62812;55.188;61.302;2024-01-15T12:53:58;-10.90;52.77
74376;HTU21D;62812;55.188;61.302;2024-01-15T12:56:36;-10.82;52.39
74376;HTU21D;62812;55.188;61.302;2024-01-15T12:59:12;-10.86;53.38
74376;HTU21D;62812;55.188;61.302;2024-01-15T13:01:43;-10.95;52.78
74376;HTU21D;62812;55.188;61.302;2024-01-15T13:04:23;-10.97;53.17
74376;HTU21D;62812;55.188;61.302;2024-01-15T13:06:52;-10.89;53.59
74376;HTU21D;62812;55.188;61.302;2024-01-15T13:09:32;-10.87;52.61
74376;HTU21D;62812;55.188;61.302;2024-01-15T13:12:11;-10.95;52.21
74376;HTU21D;62812;55.188;61.302;2024-01-15T13:14:43;-11.04;52.52
74376;HTU21D;62812;55.188;61.302;2024-01-15T13:17:10;-11.05;53.73
74376;HTU21D;62812;55.188;61.302;2024-01-15T13:19:42;-10.97;52.35
74376;HTU21D;62812;55.188;61.302;2024-01-15T13:22:11;-10.99;52.33
74376;HTU21D;62812;55.188;61.302;2024-01-15T13:24:42;-11.01;52.25
74376;HTU21D;62812;55.188;61.302;2024-01-15T13:27:21;-11.06;52.46
74376;HTU21D;62812;55.188;61.302;2024-01-15T13:29:52;-11.07;52.75
74376;HTU21D;62812;55.188;61.302;2024-01-15T13:32:25;-11.04;52.94
74376;HTU21D;62812;55.188;61.302;2024-01-15T13:34:59;-11.11;52.12
74376;HTU21D;62812;55.188;61.302;2024-01-15T13:37:33;-11.20;52.48
74376;HTU21D;62812;55.188;61.302;2024-01-15T13:40:01;-11.22;52.46
74376;HTU21D;62812;55.188;61.302;2024-01-15T13:42:50;-11.30;52.67
74376;HTU21D;62812;55.188;61.302;2024-01-15T13:45:20;-11.33;52.82
74376;HTU21D;62812;55.188;61.302;2024-01-15T13:47:47;-11.38;52.94
74376;HTU21D;62812;55.188;61.302;2024-01-15T13:50:20;-11.45;53.49
74376;HTU21D;62812;55.188;61.302;2024-01-15T13:52:58;-11.48;53.93
74376;HTU21D;62812;55.188;61.302;2024-01-15T13:55:25;-11.47;53.80
74376;HTU21D;62812;55.188;61.302;2024-01-15T13:57:52;-11.51;53.52
74376;HTU21D;62812;55.188;61.302;2024-01-15T14:00:23;-11.62;53.28
74376;HTU21D;62812;55.188;61.302;2024-01-15T14:02:59;-11.66;53.44
74376;HTU21D;62812;55.188;61.302;2024-01-15T14:05:26;-11.64;56.48
74376;HTU21D;62812;55.188;61.302;2024-01-15T14:07:58;-11.62;53.70
74376;HTU21D;62812;55.188;61.302;2024-01-15T14:10:26;-11.64;53.33
74376;HTU21D;62812;55.188;61.302;2024-01-15T14:12:53;-11.67;53.56
74376;HTU21D;62812;55.188;61.302;2024-01-15T14:15:25;-11.69;53.54
74376;HTU21D;62812;55.188;61.302;2024-01-15T14:18:04;-11.69;53.81
74376;HTU21D;62812;55.188;61.302;2024-01-15T14:20:56;-11.75;53.85
74376;HTU21D;62812;55.188;61.302;2024-01-15T14:23:26;-11.71;53.72
74376;HTU21D;62812;55.188;61.302;2024-01-15T14:25:59;-11.73;53.90
74376;HTU21D;62812;55.188;61.302;2024-01-15T14:28:38;-11.66;54.18
74376;HTU21D;62812;55.188;61.302;2024-01-15T14:31:09;-11.67;53.37
74376;HTU21D;62812;55.188;61.302;2024-01-15T14:33:36;-11.77;54.10
74376;HTU21D;62812;55.188;61.302;2024-01-15T14:36:03;-11.76;53.64
74376;HTU21D;62812;55.188;61.302;2024-01-15T14:38:30;-11.80;54.68
74376;HTU21D;62812;55.188;61.302;2024-01-15T14:40:57;-11.81;54.03
74376;HTU21D;62812;55.188;61.302;2024-01-15T14:43:24;-11.84;53.85
74376;HTU21D;62812;55.188;61.302;2024-01-15T14:45:55;-11.84;54.17
74376;HTU21D;62812;55.188;61.302;2024-01-15T14:48:27;-11.91;54.11
74376;HTU21D;62812;55.188;61.302;2024-01-15T14:50:56;-11.95;53.94
74376;HTU21D;62812;55.188;61.302;2024-01-15T14:53:29;-12.01;54.04
74376;HTU21D;62812;55.188;61.302;2024-01-15T14:55:59;-12.06;54.51
74376;HTU21D;62812;55.188;61.302;2024-01-15T14:58:29;-12.10;54.59
74376;HTU21D;62812;55.188;61.302;2024-01-15T15:00:59;-12.15;54.92
74376;HTU21D;62812;55.188;61.302;2024-01-15T15:03:30;-12.18;55.02
74376;HTU21D;62812;55.188;61.302;2024-01-15T15:05:57;-12.19;55.24
74376;HTU21D;62812;55.188;61.302;2024-01-15T15:08:24;-12.18;54.71
74376;HTU21D;62812;55.188;61.302;2024-01-15T15:10:54;-12.20;54.62
74376;HTU21D;62812;55.188;61.302;2024-01-15T15:13:24;-12.21;54.46
74376;HTU21D;62812;55.188;61.302;2024-01-15T15:15:54;-12.26;54.52